Rechercher aéroport 
image banner adimage banner ad
image banner ad

FYAR - Arandis

Situé à Swakopmund, Namibia

ICAO - FYAR, IATA - ADI

Données fournies par Airmate  

Information générale

Coordonnées: S22°27'60" E14°58'60"
Élévation : 1905 feet MSL.
 
Voir autres Aéroports à Erongo

Données opérationnelles

Accessible au public
Heure actuelle UTC:
Heure actuelle locale:
Météo à : FYWB - Walvis Bay ( 67 km )
METAR: FYWB 182300Z AUTO 27004KT //// // ////// 17/15 Q1013
TAF: TAF FYWB 181600Z 1818/1918 24011KT CAVOK BECMG 1819/1821 9999 BKN020
Voir NOTAMs / SUP AIP / TFR affectant cet aéroport [VIEW]
Fréquences de communication: [VIEW]

Pistes:

Identifiant RWYQFULongueur (ft)Largeur (ft)SurfaceLDA (ft)
1081°629966ASP
28629966

Coordonnées de l'aéroport

Adresse: Swakopmund Namibia

Vue satellite de FYAR